sensor_id;sensor_type;location;lat;lon;timestamp;temperature;humidity
71128;SHT30;59249;59.736;30.568;2023-11-22T00:01:41;-4.92;83.25
71128;SHT30;59249;59.736;30.568;2023-11-22T00:04:10;-4.91;83.48
71128;SHT30;59249;59.736;30.568;2023-11-22T00:06:39;-4.93;83.53
71128;SHT30;59249;59.736;30.568;2023-11-22T00:09:08;-4.89;83.61
71128;SHT30;59249;59.736;30.568;2023-11-22T00:11:37;-4.89;83.56
71128;SHT30;59249;59.736;30.568;2023-11-22T00:14:07;-4.87;83.55
71128;SHT30;59249;59.736;30.568;2023-11-22T00:16:36;-4.91;83.50
71128;SHT30;59249;59.736;30.568;2023-11-22T00:19:07;-4.93;83.62
71128;SHT30;59249;59.736;30.568;2023-11-22T00:21:36;-4.93;83.65
71128;SHT30;59249;59.736;30.568;2023-11-22T00:24:06;-5.00;83.79
71128;SHT30;59249;59.736;30.568;2023-11-22T00:26:36;-5.09;83.69
71128;SHT30;59249;59.736;30.568;2023-11-22T00:29:03;-5.18;83.78
71128;SHT30;59249;59.736;30.568;2023-11-22T00:31:34;-5.33;84.24
71128;SHT30;59249;59.736;30.568;2023-11-22T00:34:03;-5.30;84.24
71128;SHT30;59249;59.736;30.568;2023-11-22T00:36:31;-5.39;84.64
71128;SHT30;59249;59.736;30.568;2023-11-22T00:39:01;-5.48;84.66
71128;SHT30;59249;59.736;30.568;2023-11-22T00:41:31;-5.48;85.16
71128;SHT30;59249;59.736;30.568;2023-11-22T00:44:00;-5.58;84.97
71128;SHT30;59249;59.736;30.568;2023-11-22T00:46:29;-5.66;85.11
71128;SHT30;59249;59.736;30.568;2023-11-22T00:48:59;-5.67;85.32
71128;SHT30;59249;59.736;30.568;2023-11-22T00:51:38;-5.77;85.49
71128;SHT30;59249;59.736;30.568;2023-11-22T00:54:17;-5.77;85.56
71128;SHT30;59249;59.736;30.568;2023-11-22T00:56:46;-5.74;85.67
71128;SHT30;59249;59.736;30.568;2023-11-22T00:59:15;-5.79;85.78
71128;SHT30;59249;59.736;30.568;2023-11-22T01:01:45;-5.76;85.71
71128;SHT30;59249;59.736;30.568;2023-11-22T01:04:15;-5.74;85.97
71128;SHT30;59249;59.736;30.568;2023-11-22T01:06:44;-5.74;85.94
71128;SHT30;59249;59.736;30.568;2023-11-22T01:09:12;-5.78;86.13
71128;SHT30;59249;59.736;30.568;2023-11-22T01:11:44;-5.74;85.97
71128;SHT30;59249;59.736;30.568;2023-11-22T01:14:13;-5.71;86.06
71128;SHT30;59249;59.736;30.568;2023-11-22T01:16:41;-5.73;86.24
71128;SHT30;59249;59.736;30.568;2023-11-22T01:19:10;-5.71;85.89
71128;SHT30;59249;59.736;30.568;2023-11-22T01:21:41;-5.68;86.00
71128;SHT30;59249;59.736;30.568;2023-11-22T01:24:10;-5.64;85.91
71128;SHT30;59249;59.736;30.568;2023-11-22T01:26:40;-5.62;85.75
71128;SHT30;59249;59.736;30.568;2023-11-22T01:29:09;-5.62;85.83
71128;SHT30;59249;59.736;30.568;2023-11-22T01:31:39;-5.62;85.91
71128;SHT30;59249;59.736;30.568;2023-11-22T01:34:09;-5.59;85.89
71128;SHT30;59249;59.736;30.568;2023-11-22T01:36:43;-5.55;85.80
71128;SHT30;59249;59.736;30.568;2023-11-22T01:39:12;-5.54;85.86
71128;SHT30;59249;59.736;30.568;2023-11-22T01:41:44;-5.53;85.95
71128;SHT30;59249;59.736;30.568;2023-11-22T01:44:13;-5.53;86.04
71128;SHT30;59249;59.736;30.568;2023-11-22T01:46:43;-5.46;86.20
71128;SHT30;59249;59.736;30.568;2023-11-22T01:49:12;-5.43;86.02
71128;SHT30;59249;59.736;30.568;2023-11-22T01:51:42;-5.44;86.01
71128;SHT30;59249;59.736;30.568;2023-11-22T01:54:12;-5.43;85.92
71128;SHT30;59249;59.736;30.568;2023-11-22T01:56:41;-5.37;85.94
71128;SHT30;59249;59.736;30.568;2023-11-22T01:59:10;-5.41;85.90
71128;SHT30;59249;59.736;30.568;2023-11-22T02:01:39;-5.47;86.08
71128;SHT30;59249;59.736;30.568;2023-11-22T02:04:08;-5.43;86.14
71128;SHT30;59249;59.736;30.568;2023-11-22T02:06:37;-5.40;86.16
71128;SHT30;59249;59.736;30.568;2023-11-22T02:09:07;-5.36;85.67
71128;SHT30;59249;59.736;30.568;2023-11-22T02:11:41;-5.54;85.33
71128;SHT30;59249;59.736;30.568;2023-11-22T02:14:13;-5.59;85.09
71128;SHT30;59249;59.736;30.568;2023-11-22T02:16:42;-5.67;85.15
71128;SHT30;59249;59.736;30.568;2023-11-22T02:19:15;-5.73;85.27
71128;SHT30;59249;59.736;30.568;2023-11-22T02:21:44;-5.78;85.21
71128;SHT30;59249;59.736;30.568;2023-11-22T02:24:14;-5.79;85.42
71128;SHT30;59249;59.736;30.568;2023-11-22T02:26:44;-5.79;85.59
71128;SHT30;59249;59.736;30.568;2023-11-22T02:29:14;-5.72;85.45
71128;SHT30;59249;59.736;30.568;2023-11-22T02:31:43;-5.71;85.35
71128;SHT30;59249;59.736;30.568;2023-11-22T02:34:12;-5.73;85.44
71128;SHT30;59249;59.736;30.568;2023-11-22T02:36:43;-5.70;85.76
71128;SHT30;59249;59.736;30.568;2023-11-22T02:39:37;-5.59;86.00
71128;SHT30;59249;59.736;30.568;2023-11-22T02:42:09;-5.51;85.89
71128;SHT30;59249;59.736;30.568;2023-11-22T02:44:38;-5.48;85.68
71128;SHT30;59249;59.736;30.568;2023-11-22T02:47:07;-5.40;85.29
71128;SHT30;59249;59.736;30.568;2023-11-22T02:49:37;-5.39;84.92
71128;SHT30;59249;59.736;30.568;2023-11-22T02:52:06;-5.55;84.47
71128;SHT30;59249;59.736;30.568;2023-11-22T02:54:36;-5.61;84.52
71128;SHT30;59249;59.736;30.568;2023-11-22T02:57:06;-5.69;84.41
71128;SHT30;59249;59.736;30.568;2023-11-22T02:59:34;-5.71;84.18
71128;SHT30;59249;59.736;30.568;2023-11-22T03:02:03;-5.90;84.46
71128;SHT30;59249;59.736;30.568;2023-11-22T03:04:33;-5.92;85.07
71128;SHT30;59249;59.736;30.568;2023-11-22T03:07:02;-5.93;85.07
71128;SHT30;59249;59.736;30.568;2023-11-22T03:09:30;-5.94;84.63
71128;SHT30;59249;59.736;30.568;2023-11-22T03:12:00;-6.01;84.58
71128;SHT30;59249;59.736;30.568;2023-11-22T03:14:30;-6.09;84.89
71128;SHT30;59249;59.736;30.568;2023-11-22T03:16:59;-6.13;85.24
71128;SHT30;59249;59.736;30.568;2023-11-22T03:19:28;-6.07;85.19
71128;SHT30;59249;59.736;30.568;2023-11-22T03:21:56;-6.05;84.84
71128;SHT30;59249;59.736;30.568;2023-11-22T03:24:25;-6.11;84.93
71128;SHT30;59249;59.736;30.568;2023-11-22T03:26:55;-6.12;85.63
71128;SHT30;59249;59.736;30.568;2023-11-22T03:29:27;-6.14;85.84
71128;SHT30;59249;59.736;30.568;2023-11-22T03:31:56;-6.04;86.06
71128;SHT30;59249;59.736;30.568;2023-11-22T03:34:25;-6.07;86.09
71128;SHT30;59249;59.736;30.568;2023-11-22T03:36:54;-6.06;86.10
71128;SHT30;59249;59.736;30.568;2023-11-22T03:39:23;-6.05;86.12
71128;SHT30;59249;59.736;30.568;2023-11-22T03:41:52;-6.01;86.46
71128;SHT30;59249;59.736;30.568;2023-11-22T03:44:21;-5.98;86.57
71128;SHT30;59249;59.736;30.568;2023-11-22T03:46:51;-5.85;86.34
71128;SHT30;59249;59.736;30.568;2023-11-22T03:49:20;-5.86;86.29
71128;SHT30;59249;59.736;30.568;2023-11-22T03:51:49;-5.86;86.00
71128;SHT30;59249;59.736;30.568;2023-11-22T03:54:18;-5.92;85.83
71128;SHT30;59249;59.736;30.568;2023-11-22T03:56:46;-5.92;86.02
71128;SHT30;59249;59.736;30.568;2023-11-22T03:59:15;-5.96;85.85
71128;SHT30;59249;59.736;30.568;2023-11-22T04:01:44;-5.92;85.81
71128;SHT30;59249;59.736;30.568;2023-11-22T04:04:14;-5.89;85.85
71128;SHT30;59249;59.736;30.568;2023-11-22T04:06:43;-5.90;85.96
71128;SHT30;59249;59.736;30.568;2023-11-22T04:09:12;-5.91;86.00
71128;SHT30;59249;59.736;30.568;2023-11-22T04:11:41;-5.93;86.19
71128;SHT30;59249;59.736;30.568;2023-11-22T04:14:10;-5.92;86.30
71128;SHT30;59249;59.736;30.568;2023-11-22T04:16:39;-5.94;86.31
71128;SHT30;59249;59.736;30.568;2023-11-22T04:19:08;-5.88;86.35
71128;SHT30;59249;59.736;30.568;2023-11-22T04:21:39;-5.86;86.27
71128;SHT30;59249;59.736;30.568;2023-11-22T04:24:08;-5.78;85.83
71128;SHT30;59249;59.736;30.568;2023-11-22T04:26:39;-5.79;85.64
71128;SHT30;59249;59.736;30.568;2023-11-22T04:29:07;-5.76;85.31
71128;SHT30;59249;59.736;30.568;2023-11-22T04:31:36;-5.86;84.88
71128;SHT30;59249;59.736;30.568;2023-11-22T04:34:05;-5.84;84.90
71128;SHT30;59249;59.736;30.568;2023-11-22T04:36:34;-5.88;84.93
71128;SHT30;59249;59.736;30.568;2023-11-22T04:39:05;-5.89;84.96
71128;SHT30;59249;59.736;30.568;2023-11-22T04:41:34;-5.90;84.98
71128;SHT30;59249;59.736;30.568;2023-11-22T04:44:04;-5.88;85.17
71128;SHT30;59249;59.736;30.568;2023-11-22T04:46:33;-5.90;85.49
71128;SHT30;59249;59.736;30.568;2023-11-22T04:49:02;-5.86;85.07
71128;SHT30;59249;59.736;30.568;2023-11-22T04:51:31;-5.83;85.08
71128;SHT30;59249;59.736;30.568;2023-11-22T04:54:00;-5.84;84.94
71128;SHT30;59249;59.736;30.568;2023-11-22T04:56:30;-5.77;84.88
71128;SHT30;59249;59.736;30.568;2023-11-22T04:58:59;-5.78;84.72
71128;SHT30;59249;59.736;30.568;2023-11-22T05:01:32;-5.77;85.09
71128;SHT30;59249;59.736;30.568;2023-11-22T05:04:01;-5.71;85.04
71128;SHT30;59249;59.736;30.568;2023-11-22T05:06:30;-5.70;84.91
71128;SHT30;59249;59.736;30.568;2023-11-22T05:08:59;-5.64;84.87
71128;SHT30;59249;59.736;30.568;2023-11-22T05:11:30;-5.58;84.98
71128;SHT30;59249;59.736;30.568;2023-11-22T05:13:58;-5.53;84.88
71128;SHT30;59249;59.736;30.568;2023-11-22T05:16:27;-5.53;84.78
71128;SHT30;59249;59.736;30.568;2023-11-22T05:18:56;-5.48;84.70
71128;SHT30;59249;59.736;30.568;2023-11-22T05:21:25;-5.56;84.42
71128;SHT30;59249;59.736;30.568;2023-11-22T05:23:53;-5.48;84.46
71128;SHT30;59249;59.736;30.568;2023-11-22T05:26:22;-5.47;84.45
71128;SHT30;59249;59.736;30.568;2023-11-22T05:28:53;-5.42;84.16
71128;SHT30;59249;59.736;30.568;2023-11-22T05:31:22;-5.46;84.48
71128;SHT30;59249;59.736;30.568;2023-11-22T05:33:51;-5.39;84.76
71128;SHT30;59249;59.736;30.568;2023-11-22T05:36:20;-5.30;84.76
71128;SHT30;59249;59.736;30.568;2023-11-22T05:38:49;-5.21;84.71
71128;SHT30;59249;59.736;30.568;2023-11-22T05:41:17;-5.13;84.55
71128;SHT30;59249;59.736;30.568;2023-11-22T05:43:46;-5.02;84.47
71128;SHT30;59249;59.736;30.568;2023-11-22T05:46:16;-4.94;84.02
71128;SHT30;59249;59.736;30.568;2023-11-22T05:48:49;-4.88;83.52
71128;SHT30;59249;59.736;30.568;2023-11-22T05:51:18;-4.74;83.16
71128;SHT30;59249;59.736;30.568;2023-11-22T05:53:48;-4.76;83.02
71128;SHT30;59249;59.736;30.568;2023-11-22T05:56:17;-4.76;82.66
71128;SHT30;59249;59.736;30.568;2023-11-22T05:58:46;-4.69;82.58
71128;SHT30;59249;59.736;30.568;2023-11-22T06:01:17;-4.72;82.19
71128;SHT30;59249;59.736;30.568;2023-11-22T06:03:46;-4.63;82.14
71128;SHT30;59249;59.736;30.568;2023-11-22T06:06:16;-4.60;82.07
71128;SHT30;59249;59.736;30.568;2023-11-22T06:08:45;-4.58;81.98
71128;SHT30;59249;59.736;30.568;2023-11-22T06:11:14;-4.50;81.96
71128;SHT30;59249;59.736;30.568;2023-11-22T06:13:43;-4.48;81.86
71128;SHT30;59249;59.736;30.568;2023-11-22T06:16:13;-4.39;81.87
71128;SHT30;59249;59.736;30.568;2023-11-22T06:18:44;-4.39;81.69
71128;SHT30;59249;59.736;30.568;2023-11-22T06:21:13;-4.43;81.72
71128;SHT30;59249;59.736;30.568;2023-11-22T06:23:41;-4.48;81.86
71128;SHT30;59249;59.736;30.568;2023-11-22T06:26:10;-4.43;81.70
71128;SHT30;59249;59.736;30.568;2023-11-22T06:28:39;-4.40;81.68
71128;SHT30;59249;59.736;30.568;2023-11-22T06:31:08;-4.36;81.59
71128;SHT30;59249;59.736;30.568;2023-11-22T06:33:37;-4.32;81.50
71128;SHT30;59249;59.736;30.568;2023-11-22T06:36:09;-4.25;81.51
71128;SHT30;59249;59.736;30.568;2023-11-22T06:38:40;-4.28;81.66
71128;SHT30;59249;59.736;30.568;2023-11-22T06:41:09;-4.23;81.74
71128;SHT30;59249;59.736;30.568;2023-11-22T06:43:38;-4.13;81.79
71128;SHT30;59249;59.736;30.568;2023-11-22T06:46:08;-4.11;82.08
71128;SHT30;59249;59.736;30.568;2023-11-22T06:48:37;-4.17;81.94
71128;SHT30;59249;59.736;30.568;2023-11-22T06:51:07;-4.04;81.85
71128;SHT30;59249;59.736;30.568;2023-11-22T06:53:36;-3.99;81.72
71128;SHT30;59249;59.736;30.568;2023-11-22T06:56:05;-4.02;81.68
71128;SHT30;59249;59.736;30.568;2023-11-22T06:58:34;-3.94;81.72
71128;SHT30;59249;59.736;30.568;2023-11-22T07:01:03;-3.95;81.46
71128;SHT30;59249;59.736;30.568;2023-11-22T07:03:32;-3.95;80.86
71128;SHT30;59249;59.736;30.568;2023-11-22T07:06:01;-3.96;81.03
71128;SHT30;59249;59.736;30.568;2023-11-22T07:08:32;-3.96;81.25
71128;SHT30;59249;59.736;30.568;2023-11-22T07:11:03;-3.96;81.59
71128;SHT30;59249;59.736;30.568;2023-11-22T07:13:33;-3.91;81.93
71128;SHT30;59249;59.736;30.568;2023-11-22T07:16:07;-3.94;81.98
71128;SHT30;59249;59.736;30.568;2023-11-22T07:18:36;-3.99;82.13
71128;SHT30;59249;59.736;30.568;2023-11-22T07:21:05;-3.93;82.19
71128;SHT30;59249;59.736;30.568;2023-11-22T07:23:35;-3.99;82.17
71128;SHT30;59249;59.736;30.568;2023-11-22T07:26:04;-4.01;82.01
71128;SHT30;59249;59.736;30.568;2023-11-22T07:28:33;-4.04;81.93
71128;SHT30;59249;59.736;30.568;2023-11-22T07:31:06;-4.04;81.97
71128;SHT30;59249;59.736;30.568;2023-11-22T07:33:36;-4.02;82.04
71128;SHT30;59249;59.736;30.568;2023-11-22T07:36:06;-4.07;81.81
71128;SHT30;59249;59.736;30.568;2023-11-22T07:38:36;-3.99;81.81
71128;SHT30;59249;59.736;30.568;2023-11-22T07:41:08;-4.01;81.84
71128;SHT30;59249;59.736;30.568;2023-11-22T07:43:38;-4.04;81.44
71128;SHT30;59249;59.736;30.568;2023-11-22T07:46:08;-3.99;81.09
71128;SHT30;59249;59.736;30.568;2023-11-22T07:48:42;-3.99;80.96
71128;SHT30;59249;59.736;30.568;2023-11-22T07:51:13;-3.97;80.95
71128;SHT30;59249;59.736;30.568;2023-11-22T07:53:45;-3.95;80.74
71128;SHT30;59249;59.736;30.568;2023-11-22T07:56:14;-3.94;80.25
71128;SHT30;59249;59.736;30.568;2023-11-22T07:58:46;-3.91;79.65
71128;SHT30;59249;59.736;30.568;2023-11-22T08:01:14;-3.87;79.61
71128;SHT30;59249;59.736;30.568;2023-11-22T08:03:43;-3.93;79.09
71128;SHT30;59249;59.736;30.568;2023-11-22T08:06:16;-3.87;78.60
71128;SHT30;59249;59.736;30.568;2023-11-22T08:08:46;-3.90;78.56
71128;SHT30;59249;59.736;30.568;2023-11-22T08:11:15;-3.86;78.51
71128;SHT30;59249;59.736;30.568;2023-11-22T08:13:45;-3.89;78.24
71128;SHT30;59249;59.736;30.568;2023-11-22T08:16:15;-3.91;78.02
71128;SHT30;59249;59.736;30.568;2023-11-22T08:18:45;-3.92;78.13
71128;SHT30;59249;59.736;30.568;2023-11-22T08:21:15;-3.88;78.41
71128;SHT30;59249;59.736;30.568;2023-11-22T08:23:46;-3.87;78.20
71128;SHT30;59249;59.736;30.568;2023-11-22T08:26:16;-3.96;78.48
71128;SHT30;59249;59.736;30.568;2023-11-22T08:28:46;-3.91;78.59
71128;SHT30;59249;59.736;30.568;2023-11-22T08:31:15;-3.97;78.55
71128;SHT30;59249;59.736;30.568;2023-11-22T08:33:44;-4.02;78.41
71128;SHT30;59249;59.736;30.568;2023-11-22T08:36:13;-3.98;78.41
71128;SHT30;59249;59.736;30.568;2023-11-22T08:38:41;-4.04;78.49
71128;SHT30;59249;59.736;30.568;2023-11-22T08:41:13;-3.98;78.35
71128;SHT30;59249;59.736;30.568;2023-11-22T08:43:42;-4.04;78.51
71128;SHT30;59249;59.736;30.568;2023-11-22T08:46:11;-4.03;78.36
71128;SHT30;59249;59.736;30.568;2023-11-22T08:48:42;-3.97;78.53
71128;SHT30;59249;59.736;30.568;2023-11-22T08:51:11;-3.91;78.30
71128;SHT30;59249;59.736;30.568;2023-11-22T08:53:40;-4.06;77.99
71128;SHT30;59249;59.736;30.568;2023-11-22T08:56:13;-3.89;78.20
71128;SHT30;59249;59.736;30.568;2023-11-22T08:58:44;-3.97;78.41
71128;SHT30;59249;59.736;30.568;2023-11-22T09:01:15;-3.99;78.91
71128;SHT30;59249;59.736;30.568;2023-11-22T09:03:44;-3.93;78.90
71128;SHT30;59249;59.736;30.568;2023-11-22T09:06:13;-4.04;78.97
71128;SHT30;59249;59.736;30.568;2023-11-22T09:08:42;-4.06;78.92
71128;SHT30;59249;59.736;30.568;2023-11-22T09:11:15;-4.12;78.83
71128;SHT30;59249;59.736;30.568;2023-11-22T09:13:47;-4.15;79.11
71128;SHT30;59249;59.736;30.568;2023-11-22T09:16:17;-4.21;78.86
71128;SHT30;59249;59.736;30.568;2023-11-22T09:18:50;-4.23;78.52
71128;SHT30;59249;59.736;30.568;2023-11-22T09:21:19;-4.18;78.43
71128;SHT30;59249;59.736;30.568;2023-11-22T09:23:48;-4.06;78.55
71128;SHT30;59249;59.736;30.568;2023-11-22T09:26:18;-4.00;78.44
71128;SHT30;59249;59.736;30.568;2023-11-22T09:28:47;-4.08;78.13
71128;SHT30;59249;59.736;30.568;2023-11-22T09:31:16;-4.08;78.64
71128;SHT30;59249;59.736;30.568;2023-11-22T09:33:48;-4.08;78.53
71128;SHT30;59249;59.736;30.568;2023-11-22T09:36:18;-4.13;78.75
71128;SHT30;59249;59.736;30.568;2023-11-22T09:38:46;-4.09;78.66
71128;SHT30;59249;59.736;30.568;2023-11-22T09:41:15;-4.12;78.64
71128;SHT30;59249;59.736;30.568;2023-11-22T09:43:46;-4.13;78.62
71128;SHT30;59249;59.736;30.568;2023-11-22T09:46:17;-4.09;78.59
71128;SHT30;59249;59.736;30.568;2023-11-22T09:48:48;-4.09;78.10
71128;SHT30;59249;59.736;30.568;2023-11-22T09:51:23;-4.08;77.66
71128;SHT30;59249;59.736;30.568;2023-11-22T09:53:55;-4.06;77.18
71128;SHT30;59249;59.736;30.568;2023-11-22T09:56:27;-4.04;76.82
71128;SHT30;59249;59.736;30.568;2023-11-22T09:58:59;-4.19;76.55
71128;SHT30;59249;59.736;30.568;2023-11-22T10:01:30;-3.98;76.79
71128;SHT30;59249;59.736;30.568;2023-11-22T10:04:01;-3.94;77.52
71128;SHT30;59249;59.736;30.568;2023-11-22T10:06:33;-3.95;78.36
71128;SHT30;59249;59.736;30.568;2023-11-22T10:09:04;-3.99;78.47
71128;SHT30;59249;59.736;30.568;2023-11-22T10:11:36;-3.95;78.84
71128;SHT30;59249;59.736;30.568;2023-11-22T10:14:08;-3.98;78.94
71128;SHT30;59249;59.736;30.568;2023-11-22T10:16:37;-3.95;78.91
71128;SHT30;59249;59.736;30.568;2023-11-22T10:19:06;-3.99;79.22
71128;SHT30;59249;59.736;30.568;2023-11-22T10:21:37;-3.98;79.13
71128;SHT30;59249;59.736;30.568;2023-11-22T10:24:08;-4.02;79.20
71128;SHT30;59249;59.736;30.568;2023-11-22T10:26:37;-4.04;79.11
71128;SHT30;59249;59.736;30.568;2023-11-22T10:29:08;-3.96;79.41
71128;SHT30;59249;59.736;30.568;2023-11-22T10:31:41;-4.03;79.43
71128;SHT30;59249;59.736;30.568;2023-11-22T10:34:13;-4.00;79.36
71128;SHT30;59249;59.736;30.568;2023-11-22T10:36:42;-4.00;79.39
71128;SHT30;59249;59.736;30.568;2023-11-22T10:39:11;-3.99;79.24
71128;SHT30;59249;59.736;30.568;2023-11-22T10:41:46;-3.99;79.02
71128;SHT30;59249;59.736;30.568;2023-11-22T10:44:19;-4.03;79.05
71128;SHT30;59249;59.736;30.568;2023-11-22T10:46:48;-4.02;79.05
71128;SHT30;59249;59.736;30.568;2023-11-22T10:49:20;-4.01;79.05
71128;SHT30;59249;59.736;30.568;2023-11-22T10:51:52;-3.95;79.15
71128;SHT30;59249;59.736;30.568;2023-11-22T10:54:23;-3.97;78.99
71128;SHT30;59249;59.736;30.568;2023-11-22T10:56:56;-3.95;79.18
71128;SHT30;59249;59.736;30.568;2023-11-22T10:59:31;-3.90;79.00
71128;SHT30;59249;59.736;30.568;2023-11-22T11:02:03;-3.84;78.61
71128;SHT30;59249;59.736;30.568;2023-11-22T11:04:43;-3.99;77.74
71128;SHT30;59249;59.736;30.568;2023-11-22T11:07:20;-3.81;77.36
71128;SHT30;59249;59.736;30.568;2023-11-22T11:09:51;-3.86;76.84
71128;SHT30;59249;59.736;30.568;2023-11-22T11:12:21;-3.76;76.88
71128;SHT30;59249;59.736;30.568;2023-11-22T11:14:52;-3.78;76.97
71128;SHT30;59249;59.736;30.568;2023-11-22T11:17:22;-3.78;76.66
71128;SHT30;59249;59.736;30.568;2023-11-22T11:19:52;-3.71;76.69
71128;SHT30;59249;59.736;30.568;2023-11-22T11:22:22;-3.70;76.74
71128;SHT30;59249;59.736;30.568;2023-11-22T11:25:01;-3.70;77.04
71128;SHT30;59249;59.736;30.568;2023-11-22T11:27:35;-3.76;77.33
71128;SHT30;59249;59.736;30.568;2023-11-22T11:30:44;-3.82;77.35
71128;SHT30;59249;59.736;30.568;2023-11-22T11:33:15;-3.87;77.52
71128;SHT30;59249;59.736;30.568;2023-11-22T11:35:48;-3.88;77.55
71128;SHT30;59249;59.736;30.568;2023-11-22T11:38:20;-3.93;77.70
71128;SHT30;59249;59.736;30.568;2023-11-22T11:40:49;-3.87;77.62
71128;SHT30;59249;59.736;30.568;2023-11-22T11:43:39;-3.87;77.66
71128;SHT30;59249;59.736;30.568;2023-11-22T11:46:11;-3.90;77.57
71128;SHT30;59249;59.736;30.568;2023-11-22T11:48:43;-3.85;77.83
71128;SHT30;59249;59.736;30.568;2023-11-22T11:51:15;-3.90;77.59
71128;SHT30;59249;59.736;30.568;2023-11-22T11:53:46;-3.87;77.54
71128;SHT30;59249;59.736;30.568;2023-11-22T11:56:17;-3.83;77.41
71128;SHT30;59249;59.736;30.568;2023-11-22T11:58:50;-3.97;77.47
71128;SHT30;59249;59.736;30.568;2023-11-22T12:01:21;-3.87;77.34
71128;SHT30;59249;59.736;30.568;2023-11-22T12:03:50;-3.89;77.59
71128;SHT30;59249;59.736;30.568;2023-11-22T12:06:22;-3.93;77.51
71128;SHT30;59249;59.736;30.568;2023-11-22T12:08:52;-3.99;77.24
71128;SHT30;59249;59.736;30.568;2023-11-22T12:11:21;-4.03;76.90
71128;SHT30;59249;59.736;30.568;2023-11-22T12:13:50;-4.04;76.96
71128;SHT30;59249;59.736;30.568;2023-11-22T12:16:23;-4.02;76.82
71128;SHT30;59249;59.736;30.568;2023-11-22T12:18:52;-4.02;76.66
71128;SHT30;59249;59.736;30.568;2023-11-22T12:21:21;-4.03;77.05
71128;SHT30;59249;59.736;30.568;2023-11-22T12:23:51;-4.01;76.89
71128;SHT30;59249;59.736;30.568;2023-11-22T12:26:21;-4.01;76.86
71128;SHT30;59249;59.736;30.568;2023-11-22T12:28:50;-4.02;76.48
71128;SHT30;59249;59.736;30.568;2023-11-22T12:31:33;-4.02;75.83
71128;SHT30;59249;59.736;30.568;2023-11-22T12:34:04;-4.00;75.78
71128;SHT30;59249;59.736;30.568;2023-11-22T12:36:36;-3.99;75.85
71128;SHT30;59249;59.736;30.568;2023-11-22T12:39:08;-3.99;76.11
71128;SHT30;59249;59.736;30.568;2023-11-22T12:41:45;-3.99;76.35
71128;SHT30;59249;59.736;30.568;2023-11-22T12:44:28;-3.95;76.47
71128;SHT30;59249;59.736;30.568;2023-11-22T12:47:02;-3.93;76.58
71128;SHT30;59249;59.736;30.568;2023-11-22T12:49:43;-3.96;76.79
71128;SHT30;59249;59.736;30.568;2023-11-22T12:52:14;-3.95;76.89
71128;SHT30;59249;59.736;30.568;2023-11-22T12:54:44;-3.86;77.05
71128;SHT30;59249;59.736;30.568;2023-11-22T12:57:15;-3.85;77.08
71128;SHT30;59249;59.736;30.568;2023-11-22T12:59:49;-3.83;77.14
71128;SHT30;59249;59.736;30.568;2023-11-22T13:02:20;-3.86;77.38
71128;SHT30;59249;59.736;30.568;2023-11-22T13:04:49;-3.87;77.56
71128;SHT30;59249;59.736;30.568;2023-11-22T13:07:18;-3.84;77.70
71128;SHT30;59249;59.736;30.568;2023-11-22T13:09:47;-3.93;78.51
71128;SHT30;59249;59.736;30.568;2023-11-22T13:12:16;-3.89;78.72
71128;SHT30;59249;59.736;30.568;2023-11-22T13:14:46;-3.94;79.20
71128;SHT30;59249;59.736;30.568;2023-11-22T13:17:19;-3.91;79.41
71128;SHT30;59249;59.736;30.568;2023-11-22T13:19:48;-3.95;79.58
71128;SHT30;59249;59.736;30.568;2023-11-22T13:22:17;-3.90;79.77
71128;SHT30;59249;59.736;30.568;2023-11-22T13:24:46;-3.90;79.84
71128;SHT30;59249;59.736;30.568;2023-11-22T13:27:16;-3.88;79.92
71128;SHT30;59249;59.736;30.568;2023-11-22T13:29:44;-3.86;79.96
71128;SHT30;59249;59.736;30.568;2023-11-22T13:32:14;-3.81;79.84
71128;SHT30;59249;59.736;30.568;2023-11-22T13:34:46;-3.83;79.84
71128;SHT30;59249;59.736;30.568;2023-11-22T13:37:15;-3.83;79.81
71128;SHT30;59249;59.736;30.568;2023-11-22T13:39:45;-3.89;79.98
71128;SHT30;59249;59.736;30.568;2023-11-22T13:42:15;-3.90;79.98
71128;SHT30;59249;59.736;30.568;2023-11-22T13:44:44;-3.87;80.03
71128;SHT30;59249;59.736;30.568;2023-11-22T13:47:13;-3.86;80.11
71128;SHT30;59249;59.736;30.568;2023-11-22T13:49:51;-3.82;80.12
71128;SHT30;59249;59.736;30.568;2023-11-22T13:52:20;-3.87;80.14
71128;SHT30;59249;59.736;30.568;2023-11-22T13:54:50;-3.90;80.29
71128;SHT30;59249;59.736;30.568;2023-11-22T13:57:26;-3.88;80.22
71128;SHT30;59249;59.736;30.568;2023-11-22T13:59:58;-3.88;80.40
71128;SHT30;59249;59.736;30.568;2023-11-22T14:02:27;-3.83;80.35
71128;SHT30;59249;59.736;30.568;2023-11-22T14:04:58;-3.84;80.41
71128;SHT30;59249;59.736;30.568;2023-11-22T14:07:33;-3.85;80.45
71128;SHT30;59249;59.736;30.568;2023-11-22T14:10:04;-3.83;80.39
71128;SHT30;59249;59.736;30.568;2023-11-22T14:12:35;-3.81;80.43
71128;SHT30;59249;59.736;30.568;2023-11-22T14:15:06;-3.82;80.48
71128;SHT30;59249;59.736;30.568;2023-11-22T14:17:35;-3.76;80.59
71128;SHT30;59249;59.736;30.568;2023-11-22T14:20:08;-3.76;80.51
71128;SHT30;59249;59.736;30.568;2023-11-22T14:22:44;-3.80;80.46
71128;SHT30;59249;59.736;30.568;2023-11-22T14:25:14;-3.78;80.51
71128;SHT30;59249;59.736;30.568;2023-11-22T14:27:46;-3.79;80.65
71128;SHT30;59249;59.736;30.568;2023-11-22T14:30:20;-3.80;80.60
71128;SHT30;59249;59.736;30.568;2023-11-22T14:32:50;-3.78;80.61
71128;SHT30;59249;59.736;30.568;2023-11-22T14:35:27;-3.77;80.60
71128;SHT30;59249;59.736;30.568;2023-11-22T14:37:56;-3.76;80.56
71128;SHT30;59249;59.736;30.568;2023-11-22T14:40:28;-3.80;80.78
71128;SHT30;59249;59.736;30.568;2023-11-22T14:42:58;-3.87;80.79
71128;SHT30;59249;59.736;30.568;2023-11-22T14:45:30;-3.81;80.82
71128;SHT30;59249;59.736;30.568;2023-11-22T14:48:00;-3.84;81.03
71128;SHT30;59249;59.736;30.568;2023-11-22T14:50:31;-3.85;81.09
71128;SHT30;59249;59.736;30.568;2023-11-22T14:53:01;-3.95;81.24
71128;SHT30;59249;59.736;30.568;2023-11-22T14:55:33;-3.90;81.41
71128;SHT30;59249;59.736;30.568;2023-11-22T14:58:09;-3.95;81.57
71128;SHT30;59249;59.736;30.568;2023-11-22T15:00:39;-3.92;81.58
71128;SHT30;59249;59.736;30.568;2023-11-22T15:03:08;-3.95;81.68
71128;SHT30;59249;59.736;30.568;2023-11-22T15:05:39;-4.07;81.85
71128;SHT30;59249;59.736;30.568;2023-11-22T15:08:11;-4.10;81.87
71128;SHT30;59249;59.736;30.568;2023-11-22T15:10:40;-4.15;81.99
71128;SHT30;59249;59.736;30.568;2023-11-22T15:13:09;-4.21;81.90
71128;SHT30;59249;59.736;30.568;2023-11-22T15:15:38;-4.33;81.93
71128;SHT30;59249;59.736;30.568;2023-11-22T15:18:10;-4.43;82.50
71128;SHT30;59249;59.736;30.568;2023-11-22T15:20:41;-4.50;82.81
71128;SHT30;59249;59.736;30.568;2023-11-22T15:23:10;-4.60;82.89
71128;SHT30;59249;59.736;30.568;2023-11-22T15:25:39;-4.57;83.14
71128;SHT30;59249;59.736;30.568;2023-11-22T15:28:09;-4.50;83.31
71128;SHT30;59249;59.736;30.568;2023-11-22T15:30:38;-4.39;83.55
71128;SHT30;59249;59.736;30.568;2023-11-22T15:33:07;-4.30;83.44
71128;SHT30;59249;59.736;30.568;2023-11-22T15:35:39;-4.24;83.44